LFRN/RNS METAR and TAF weather

Enter ICAO airport designator
Station Type Date Time Source
LFRN METAR 2022/07/03 14:00 UTC NOAA

LFRN 031400Z AUTO 01008KT 340V040 9999 OVC046 21/11 Q1022 TEMPO 34015G25KT


Station Type Date Time Source
LFRN Decoded METAR 2022/07/03 14:00 UTC NOAA

Rennes, France (LFRN) 48-04N 001-44W 37M
Jul 03, 2022 - 10:00 AM EDT / 2022.07.03 1400 UTC
Wind: from the N (010 degrees) at 9 MPH (8 KT) (direction variable):0
Visibility: greater than 7 mile(s):0
Sky conditions: overcast
Temperature: 69 F (21 C)
Dew Point: 51 F (11 C)
Relative Humidity: 52%
Pressure (altimeter): 30.18 in. Hg (1022 hPa)
ob: LFRN 031400Z AUTO 01008KT 340V040 9999 OVC046 21/11 Q1022 TEMPO 34015G25KT
cycle: 14

Station Type Date Time Source
LFRN TAF 2022/07/03 12:50 UTC NOAA

TAF LFRN 031100Z 0312/0412 VRB05KT 9999 BKN030
BECMG 0312/0314 34010KT PROB30
TEMPO 0314/0318 34015G25KT
BECMG 0322/0324 VRB05KT
TEMPO 0400/0407 3000 BR PROB40
TEMPO 0402/0407 0500 FG VV/// PROB40
TEMPO 0407/0409 BKN012

Example: see airport list